createdAt,value
2022-08-25T04:02:27.969Z,3.30
2022-08-25T04:04:56.949Z,3.20
2022-08-25T04:07:27.026Z,3.00
2022-08-25T04:09:58.858Z,3.70
2022-08-25T04:12:27.184Z,3.40
2022-08-25T04:14:56.399Z,3.40
2022-08-25T04:23:06.041Z,2.30
2022-08-25T04:25:35.445Z,3.50
2022-08-25T04:28:04.686Z,3.00
2022-08-25T04:30:33.413Z,2.80
2022-08-25T04:33:03.966Z,2.70
2022-08-25T04:35:34.813Z,2.80
2022-08-25T04:38:03.795Z,3.50
2022-08-25T04:40:32.165Z,2.50
2022-08-25T04:43:01.113Z,3.80
2022-08-25T04:45:30.368Z,2.80
2022-08-25T04:48:01.846Z,3.20
2022-08-25T04:50:31.237Z,2.30
2022-08-25T04:53:02.294Z,2.20
2022-08-25T04:55:33.778Z,3.00
2022-08-25T04:58:03.185Z,2.70
2022-08-25T05:00:32.009Z,2.30
2022-08-25T05:03:01.080Z,2.40
2022-08-25T05:05:31.532Z,2.20
2022-08-25T05:08:04.257Z,2.20
2022-08-25T05:10:35.055Z,2.60
2022-08-25T05:13:04.875Z,2.80
2022-08-25T05:15:52.741Z,2.10
2022-08-25T05:18:23.930Z,2.30
2022-08-25T05:20:54.694Z,2.30
2022-08-25T05:23:27.108Z,2.70
2022-08-25T05:25:56.267Z,3.00
2022-08-25T05:28:25.380Z,2.20
2022-08-25T05:30:59.978Z,2.80
2022-08-25T05:33:32.711Z,3.10
2022-08-25T05:36:20.498Z,3.50
2022-08-25T05:38:50.031Z,3.00
2022-08-25T05:41:22.023Z,3.00
2022-08-25T05:43:51.281Z,3.20
2022-08-25T05:46:22.806Z,3.40
2022-08-25T05:48:51.352Z,3.20
2022-08-25T05:51:21.024Z,2.70
2022-08-25T05:53:52.524Z,3.00
2022-08-25T05:56:22.114Z,3.00
2022-08-25T05:58:51.023Z,2.70
2022-08-25T06:01:43.344Z,3.50
2022-08-25T06:04:16.340Z,2.70
2022-08-25T06:06:45.585Z,2.80
2022-08-25T06:09:14.436Z,3.40
2022-08-25T06:11:43.483Z,3.30
2022-08-25T06:14:37.731Z,2.70
2022-08-25T06:17:35.714Z,2.80
2022-08-25T06:20:06.651Z,2.80
2022-08-25T06:22:38.504Z,8.80
2022-08-25T06:29:36.461Z,5.40
2022-08-25T06:32:07.336Z,5.30
2022-08-25T06:34:36.885Z,5.50
2022-08-25T06:37:10.299Z,5.30
2022-08-25T06:39:40.605Z,4.20
2022-08-25T06:42:10.652Z,3.90
2022-08-25T06:44:40.210Z,3.10
2022-08-25T06:47:11.467Z,4.10
2022-08-25T06:49:40.009Z,3.60
2022-08-25T06:52:09.455Z,3.10
2022-08-25T06:54:39.073Z,3.80
2022-08-25T06:57:08.996Z,3.80
2022-08-25T06:59:39.093Z,3.50
2022-08-25T07:02:13.271Z,3.10
2022-08-25T07:04:54.229Z,3.00
2022-08-25T07:07:23.671Z,4.10
2022-08-25T07:09:52.747Z,3.20
2022-08-25T07:12:22.580Z,4.00
2022-08-25T07:15:10.158Z,4.20
2022-08-25T07:17:44.647Z,4.90
2022-08-25T07:20:14.775Z,4.30
2022-08-25T07:22:44.153Z,4.50
2022-08-25T07:25:12.867Z,4.80
2022-08-25T07:27:42.393Z,3.90
2022-08-25T07:30:11.391Z,3.70
2022-08-25T07:32:42.079Z,4.10
2022-08-25T07:35:20.138Z,3.90
2022-08-25T07:37:58.778Z,4.60
2022-08-25T07:40:34.140Z,3.80
2022-08-25T07:43:07.108Z,4.10
2022-08-25T07:45:46.821Z,4.90
2022-08-25T07:48:22.809Z,5.10
2022-08-25T07:50:52.809Z,4.90
2022-08-25T07:53:22.796Z,4.10
2022-08-25T07:55:51.271Z,3.60
2022-08-25T07:58:22.708Z,4.20
2022-08-25T08:00:53.514Z,4.50
2022-08-25T08:03:44.735Z,4.30
2022-08-25T08:06:14.305Z,4.40
2022-08-25T08:08:45.883Z,3.80
2022-08-25T08:11:20.606Z,4.30
2022-08-25T08:13:50.887Z,3.60
2022-08-25T08:16:23.439Z,3.80
2022-08-25T08:18:53.922Z,4.20
2022-08-25T08:21:29.956Z,3.70
2022-08-25T08:23:59.691Z,3.80
2022-08-25T08:26:48.194Z,4.30
2022-08-25T08:29:20.827Z,4.30
2022-08-25T08:31:52.429Z,4.60
2022-08-25T08:34:24.903Z,3.90
2022-08-25T08:36:55.239Z,3.90
2022-08-25T08:39:24.994Z,3.90
2022-08-25T08:42:22.583Z,3.80
2022-08-25T08:44:57.004Z,4.40
2022-08-25T08:48:10.730Z,5.00
2022-08-25T08:51:16.184Z,4.20
2022-08-25T08:53:57.373Z,3.60
2022-08-25T08:56:30.964Z,4.20
2022-08-25T08:59:07.146Z,3.80
2022-08-25T09:02:02.381Z,4.70
2022-08-25T09:04:50.914Z,4.20
2022-08-25T09:07:31.546Z,3.90
2022-08-25T09:10:01.580Z,4.20
2022-08-25T09:13:02.872Z,4.10
2022-08-25T09:16:04.970Z,4.10
2022-08-25T09:19:08.189Z,3.60
2022-08-25T09:21:50.444Z,4.50
2022-08-25T09:24:53.158Z,3.50
2022-08-25T09:27:41.926Z,5.30
2022-08-25T09:30:24.910Z,4.40
2022-08-25T09:33:05.315Z,3.50
2022-08-25T09:35:40.461Z,4.10
2022-08-25T09:38:12.287Z,4.80
2022-08-25T09:40:48.168Z,4.70
2022-08-25T09:43:44.896Z,4.40
2022-08-25T09:46:14.175Z,4.90
2022-08-25T09:48:46.086Z,5.20
2022-08-25T09:51:21.151Z,5.40
2022-08-25T09:53:59.197Z,4.00
2022-08-25T09:56:32.348Z,4.40
2022-08-25T09:59:34.321Z,4.70
2022-08-25T10:02:04.505Z,5.60
2022-08-25T10:04:40.046Z,5.50
2022-08-25T10:07:39.528Z,6.10
2022-08-25T10:10:25.761Z,5.70
2022-08-25T10:12:55.613Z,4.80
2022-08-25T10:15:29.955Z,4.80
2022-08-25T10:18:26.368Z,5.10
2022-08-25T10:21:09.525Z,5.90
2022-08-25T10:23:45.152Z,5.20
2022-08-25T10:26:26.766Z,5.70
2022-08-25T10:29:02.425Z,5.40
2022-08-25T10:31:38.840Z,5.10
2022-08-25T10:34:22.301Z,5.30
2022-08-25T10:37:34.013Z,6.30
2022-08-25T10:40:33.003Z,5.80
2022-08-25T10:43:08.917Z,6.80
2022-08-25T10:45:51.648Z,5.40
2022-08-25T10:48:27.092Z,5.70
2022-08-25T10:51:01.897Z,5.50
2022-08-25T10:53:56.973Z,7.00
2022-08-25T10:56:40.949Z,6.20
2022-08-25T10:59:13.985Z,6.20
2022-08-25T11:02:15.836Z,6.00
2022-08-25T11:04:56.468Z,5.10
2022-08-25T11:07:35.536Z,5.60
2022-08-25T11:10:23.223Z,6.00
2022-08-25T11:13:08.360Z,5.90
2022-08-25T11:16:19.568Z,5.90
2022-08-25T11:18:56.507Z,6.40
2022-08-25T11:21:51.925Z,6.70
2022-08-25T11:24:24.604Z,6.40
2022-08-25T11:27:13.851Z,6.00
2022-08-25T11:29:49.460Z,6.00
2022-08-25T11:32:21.465Z,5.80
2022-08-25T11:34:51.834Z,5.50
2022-08-25T11:37:26.716Z,5.50
2022-08-25T11:40:14.276Z,7.30
2022-08-25T11:43:14.106Z,7.30
2022-08-25T11:45:54.560Z,6.40
2022-08-25T11:49:21.802Z,5.90
2022-08-25T11:51:52.618Z,6.00
2022-08-25T11:54:28.945Z,6.20
2022-08-25T11:57:18.528Z,5.90
2022-08-25T11:59:53.774Z,6.20
2022-08-25T12:02:49.305Z,6.40
2022-08-25T12:05:18.795Z,6.70
2022-08-25T12:08:08.929Z,6.10
2022-08-25T12:11:11.492Z,6.10
2022-08-25T12:13:52.466Z,6.70
2022-08-25T12:16:41.102Z,7.50
2022-08-25T12:19:37.982Z,7.20
2022-08-25T12:22:10.839Z,6.80
2022-08-25T12:24:48.262Z,6.50
2022-08-25T12:27:55.971Z,7.20
2022-08-25T12:30:39.456Z,6.40
2022-08-25T12:33:16.696Z,6.80
2022-08-25T12:35:59.367Z,7.60
2022-08-25T12:38:50.947Z,6.30
2022-08-25T12:41:24.363Z,6.20
2022-08-25T12:44:10.276Z,6.50
2022-08-25T12:46:45.000Z,6.10
2022-08-25T12:49:39.699Z,6.60
2022-08-25T12:52:17.143Z,7.60
2022-08-25T12:54:50.024Z,7.60
2022-08-25T12:57:53.235Z,6.10
2022-08-25T13:03:27.036Z,6.70
2022-08-25T13:06:08.792Z,6.90
2022-08-25T13:09:02.514Z,7.90
2022-08-25T13:12:06.419Z,6.80
2022-08-25T13:14:40.625Z,7.90
2022-08-25T13:17:09.786Z,7.60
2022-08-25T13:19:39.182Z,7.60
2022-08-25T13:22:16.369Z,7.10
2022-08-25T13:24:51.316Z,6.50
2022-08-25T13:27:29.009Z,6.40
2022-08-25T13:30:03.812Z,6.80
2022-08-25T13:32:37.085Z,7.60
2022-08-25T13:35:32.340Z,8.00
2022-08-25T13:38:28.481Z,7.90
2022-08-25T13:41:09.392Z,7.00
2022-08-25T13:43:40.274Z,8.90
2022-08-25T13:46:10.698Z,7.90
2022-08-25T13:48:49.634Z,7.10
2022-08-25T13:51:31.335Z,8.40
2022-08-25T13:54:07.238Z,8.00
2022-08-25T13:56:40.936Z,7.00
2022-08-25T13:59:33.940Z,6.50
2022-08-25T14:02:03.392Z,7.40
2022-08-25T14:04:50.853Z,6.80
2022-08-25T14:07:21.873Z,6.70
2022-08-25T14:09:58.807Z,7.50
2022-08-25T14:12:45.171Z,6.10
2022-08-25T14:15:22.502Z,5.80
2022-08-25T14:18:04.775Z,7.40
2022-08-25T14:20:36.663Z,6.30
2022-08-25T14:23:10.183Z,6.50
2022-08-25T14:25:42.420Z,6.90
2022-08-25T14:28:15.421Z,6.30
2022-08-25T14:30:51.791Z,6.50
2022-08-25T14:33:25.827Z,6.00
2022-08-25T14:35:56.004Z,6.60
2022-08-25T14:38:26.004Z,6.50
2022-08-25T14:40:55.400Z,8.10
2022-08-25T14:43:31.281Z,7.80
2022-08-25T14:46:10.208Z,15.30
2022-08-25T14:48:46.982Z,8.10
2022-08-25T14:51:18.523Z,6.80
2022-08-25T14:53:48.124Z,7.70
2022-08-25T14:56:17.651Z,8.20
2022-08-25T14:58:51.164Z,7.40
2022-08-25T15:01:29.289Z,7.10
2022-08-25T15:04:10.733Z,8.10
2022-08-25T15:06:44.352Z,8.40
2022-08-25T15:09:17.413Z,8.90
2022-08-25T15:11:54.534Z,7.90
2022-08-25T15:14:29.187Z,7.10
2022-08-25T15:17:04.013Z,6.80
2022-08-25T15:19:34.796Z,7.00
2022-08-25T15:22:03.771Z,8.00
2022-08-25T15:24:38.392Z,8.10
2022-08-25T15:27:15.703Z,10.00
2022-08-25T15:29:51.582Z,8.00
2022-08-25T15:32:21.663Z,8.80
2022-08-25T15:34:54.961Z,8.10
2022-08-25T15:37:27.680Z,8.30
2022-08-25T15:43:03.647Z,7.90
2022-08-25T15:45:52.517Z,8.30
2022-08-25T15:48:41.716Z,8.70
2022-08-25T15:51:31.815Z,7.90
2022-08-25T15:54:01.526Z,8.30
2022-08-25T15:56:30.518Z,10.40
2022-08-25T15:59:08.630Z,9.20
2022-08-25T16:01:39.693Z,8.40
2022-08-25T16:04:10.529Z,9.20
2022-08-25T16:10:18.033Z,11.70
2022-08-25T16:13:16.057Z,9.10
2022-08-25T16:16:19.665Z,9.40
2022-08-25T16:20:23.566Z,8.70
2022-08-25T16:22:52.787Z,9.40
2022-08-25T16:25:43.488Z,9.00
2022-08-25T16:29:07.311Z,9.00
2022-08-25T16:32:02.360Z,8.90
2022-08-25T16:35:36.422Z,9.00
2022-08-25T16:38:31.797Z,8.40
2022-08-25T16:41:30.715Z,8.60
2022-08-25T16:44:53.977Z,8.40
2022-08-25T16:47:29.028Z,9.80
2022-08-25T16:50:06.955Z,8.60
2022-08-25T16:52:58.252Z,8.10
2022-08-25T16:55:39.280Z,8.70
2022-08-25T16:58:18.217Z,9.30
2022-08-25T17:00:48.542Z,7.50
2022-08-25T17:03:17.912Z,8.30
2022-08-25T17:05:46.188Z,7.80
2022-08-25T17:08:30.549Z,9.10
2022-08-25T17:11:15.593Z,9.50
2022-08-25T17:13:47.505Z,11.30
2022-08-25T17:16:21.426Z,9.20
2022-08-25T17:18:50.344Z,9.50
2022-08-25T17:21:24.375Z,8.20
2022-08-25T17:23:57.716Z,8.80
2022-08-25T17:26:28.975Z,9.00
2022-08-25T17:28:59.416Z,9.20
2022-08-25T17:31:30.749Z,8.60
2022-08-25T17:34:00.594Z,9.30
2022-08-25T17:36:29.186Z,8.80
2022-08-25T17:38:59.026Z,8.60
2022-08-25T17:41:32.098Z,10.40
2022-08-25T17:44:06.367Z,9.10
2022-08-25T17:46:35.096Z,9.60
2022-08-25T17:49:05.509Z,8.30
2022-08-25T17:51:34.078Z,8.70
2022-08-25T17:54:04.299Z,9.50
2022-08-25T17:56:33.938Z,9.10
2022-08-25T17:59:02.938Z,8.90
2022-08-25T18:01:34.639Z,8.90
2022-08-25T18:04:03.724Z,10.00
2022-08-25T18:06:34.331Z,7.90
2022-08-25T18:09:05.317Z,8.90
2022-08-25T18:11:35.290Z,8.60
2022-08-25T18:14:06.874Z,9.10
2022-08-25T18:16:42.226Z,8.90
2022-08-25T18:19:13.063Z,9.00
2022-08-25T18:21:43.919Z,9.70
2022-08-25T18:24:13.297Z,9.10
2022-08-25T18:26:43.209Z,10.00
2022-08-25T18:29:13.456Z,9.90
2022-08-25T18:31:42.831Z,9.30
2022-08-25T18:34:13.614Z,8.90
2022-08-25T18:36:42.407Z,8.20
2022-08-25T18:39:34.745Z,10.10
2022-08-25T18:42:06.567Z,9.90
2022-08-25T18:44:36.861Z,11.10
2022-08-25T18:47:07.541Z,10.10
2022-08-25T18:49:37.648Z,9.40
2022-08-25T18:52:07.521Z,9.80
2022-08-25T18:54:36.236Z,10.30
2022-08-25T18:57:08.243Z,8.70
2022-08-25T18:59:37.944Z,10.30
2022-08-25T19:02:08.199Z,9.30
2022-08-25T19:04:37.867Z,10.30
2022-08-25T19:07:09.726Z,10.80
2022-08-25T19:09:39.177Z,11.90
2022-08-25T19:12:11.629Z,11.00
2022-08-25T19:14:52.509Z,10.60
2022-08-25T19:17:21.366Z,10.20
2022-08-25T19:19:53.838Z,11.30
2022-08-25T19:22:40.744Z,11.00
2022-08-25T19:25:11.208Z,9.80
2022-08-25T19:27:41.346Z,10.30
2022-08-25T19:30:12.117Z,11.20
2022-08-25T19:32:42.871Z,11.50
2022-08-25T19:35:19.843Z,11.90
2022-08-25T19:37:50.275Z,11.40
2022-08-25T19:40:21.884Z,12.10
2022-08-25T19:42:53.907Z,12.90
2022-08-25T19:45:24.306Z,11.90
2022-08-25T19:47:53.748Z,14.30
2022-08-25T19:50:23.940Z,12.70
2022-08-25T19:52:52.429Z,12.30
2022-08-25T19:55:22.053Z,12.40
2022-08-25T19:58:23.813Z,12.20
2022-08-25T20:00:53.122Z,12.70
2022-08-25T20:03:22.730Z,12.10
2022-08-25T20:05:52.479Z,10.40
2022-08-25T20:08:29.806Z,12.20
2022-08-25T20:10:59.221Z,11.40
2022-08-25T20:13:27.879Z,12.10
2022-08-25T20:15:57.687Z,11.30
2022-08-25T20:18:28.399Z,9.90
2022-08-25T20:21:00.845Z,9.00
2022-08-25T20:23:47.830Z,9.90
2022-08-25T20:26:17.477Z,9.90
2022-08-25T20:28:47.236Z,11.00
2022-08-25T20:31:15.896Z,10.50
2022-08-25T20:33:44.717Z,10.70
2022-08-25T20:36:16.092Z,10.30
2022-08-25T20:38:45.158Z,10.30
2022-08-25T20:41:14.515Z,11.30
2022-08-25T20:43:43.036Z,9.10
2022-08-25T20:46:13.121Z,10.50
2022-08-25T20:48:41.470Z,10.90
2022-08-25T20:51:11.937Z,10.40
2022-08-25T20:53:43.041Z,10.90
2022-08-25T20:56:14.366Z,10.20
2022-08-25T20:58:43.556Z,9.20
2022-08-25T21:01:23.203Z,10.60
2022-08-25T21:03:52.710Z,9.00
2022-08-25T21:06:21.905Z,9.90
2022-08-25T21:08:51.477Z,9.40
2022-08-25T21:11:22.268Z,9.70
2022-08-25T21:13:52.476Z,10.00
2022-08-25T21:16:21.698Z,9.40
2022-08-25T21:18:52.393Z,9.80
2022-08-25T21:21:21.017Z,8.80
2022-08-25T21:23:51.284Z,8.80
2022-08-25T21:26:25.276Z,8.90
2022-08-25T21:28:57.683Z,9.60
2022-08-25T21:31:27.702Z,8.40
2022-08-25T21:33:58.331Z,8.50
2022-08-25T21:36:29.706Z,8.50
2022-08-25T21:39:00.933Z,8.10
2022-08-25T21:41:33.797Z,8.40
2022-08-25T21:44:03.142Z,8.70
2022-08-25T21:46:34.200Z,9.30
2022-08-25T21:49:06.136Z,10.40
2022-08-25T21:51:41.247Z,9.10
2022-08-25T21:54:13.537Z,9.20
2022-08-25T21:56:56.180Z,9.30
2022-08-25T21:59:28.219Z,8.90
2022-08-25T22:02:00.186Z,9.70
2022-08-25T22:04:30.253Z,10.10
2022-08-25T22:07:02.515Z,9.10
2022-08-25T22:09:31.744Z,9.70
2022-08-25T22:12:01.206Z,9.90
2022-08-25T22:14:30.386Z,9.50
2022-08-25T22:16:59.373Z,9.30
2022-08-25T22:19:28.795Z,9.10
2022-08-25T22:21:58.280Z,9.60
2022-08-25T22:24:30.221Z,9.10
2022-08-25T22:26:59.206Z,9.00
2022-08-25T22:29:30.626Z,9.60
2022-08-25T22:32:02.189Z,10.00
2022-08-25T22:34:34.823Z,9.70
2022-08-25T22:37:10.239Z,8.80
2022-08-25T22:39:41.788Z,11.40
2022-08-25T22:42:10.808Z,11.00
2022-08-25T22:44:40.905Z,10.60
2022-08-25T22:47:11.904Z,10.30
2022-08-25T22:49:40.951Z,9.10
2022-08-25T22:52:11.603Z,9.00
2022-08-25T22:54:42.139Z,10.20
2022-08-25T22:57:12.470Z,9.10
2022-08-25T22:59:41.309Z,8.80
